This is the latest recevied weather packets stored in our database for station/object NC4J. If no packets are shown the sender has not sent any weather packets the latest 10 day(s).
| Time | Temp. | Humidity | Pressure | Rain* | Wind** | Luminosity | Snow |
|---|---|---|---|---|---|---|---|
| 1777435786 | 14.44° C | 97% | 1016.3 hPa | 0 mm | - | 0 W/m² | - |
| 1777435179 | 14.44° C | 97% | 1016.4 hPa | 0 mm | - | 0 W/m² | - |
| 1777433966 | 14.44° C | 97% | 1017.6 hPa | 0 mm | - | 0 W/m² | - |
| 1777433663 | 14.44° C | 97% | 1017.7 hPa | 0 mm | - | 0 W/m² | - |
| 1777433359 | 14.44° C | 97% | 1017.9 hPa | 0 mm | - | 0 W/m² | - |
| 1777433055 | 15° C | 97% | 1018 hPa | 0 mm | - | 0 W/m² | - |
| 1777432750 | 15° C | 97% | 1018.3 hPa | 0 mm | - | 0 W/m² | - |
| 1777432446 | 15° C | 96% | 1018.3 hPa | 0 mm | - | 0 W/m² | - |
| 1777431836 | 15° C | 96% | 1018.5 hPa | 0 mm | - | 0 W/m² | - |
| 1777431533 | 15° C | 96% | 1018.7 hPa | 0 mm | - | 0 W/m² | - |
| 1777430317 | 15° C | 96% | 1018.7 hPa | 0 mm | - | 0 W/m² | - |
| 1777430017 | 15° C | 96% | 1019.3 hPa | 0 mm | - | 0 W/m² | - |
| 1777429410 | 15° C | 95% | 1019.1 hPa | 0 mm | - | 0 W/m² | - |
| 1777427890 | 15.56° C | 94% | 1019 hPa | 0 mm | - | 0 W/m² | - |
| 1777427283 | 15.56° C | 95% | 1019.5 hPa | 0 mm | - | 0 W/m² | - |
| 1777426677 | 15.56° C | 95% | 1019.4 hPa | 0 mm | - | 0 W/m² | - |
| 1777426069 | 15.56° C | 94% | 1019.3 hPa | 0 mm | - | 0 W/m² | - |
| 1777425765 | 15.56° C | 94% | 1019.3 hPa | 0 mm | - | 0 W/m² | - |
| 1777425459 | 16.11° C | 94% | 1019.3 hPa | 0 mm | - | 0 W/m² | - |
| 1777425156 | 16.11° C | 94% | 1019.3 hPa | 0 mm | - | 0 W/m² | - |
| 1777423027 | 16.67° C | 90% | 1017.7 hPa | 0 mm | - | 0 W/m² | - |
| 1777422418 | 17.22° C | 89% | 1017.3 hPa | 0 mm | - | 0 W/m² | - |
| 1777422113 | 17.22° C | 87% | 1017.3 hPa | 0 mm | - | 0 W/m² | - |
| 1777420294 | 18.33° C | 86% | 1017 hPa | 0 mm | - | 7 W/m² | - |
| 1777417872 | 20.56° C | 78% | 1017.1 hPa | 0 mm | - | 34 W/m² | - |
* Rain latest hour (hover to see other rain measurements)
** Current wind speed in m/s (hover to see current wind gust speed)